Time;durP1;ratioP1;P1;durP2;ratioP2;P2;SDS_P1;SDS_P2;PMS_P1;PMS_P2;Temp;Humidity;BMP_temperature;BMP_pressure;BME280_temperature;BME280_humidity;BME280_pressure;Samples;Min_cycle;Max_cycle;Signal;HPM_P1;HPM_P2
2022/06/16 00:01:59;;;;;;;;;;;24.90;95.80;;;;;;5097080;28;19924;-81
2022/06/16 00:04:27;;;;;;;;;;;25.00;95.90;;;;;;5114828;28;19928;-81
2022/06/16 00:06:55;;;;;;;;;;;24.90;95.90;;;;;;5110189;28;20404;-82
2022/06/16 00:09:23;;;;;;;;;;;24.90;96.00;;;;;;5079671;28;19930;-81
2022/06/16 00:11:51;;;;;;;;;;;24.80;95.90;;;;;;5096222;28;19926;-81
2022/06/16 00:14:18;;;;;;;;;;;24.90;96.00;;;;;;5096504;28;20010;-81
2022/06/16 00:16:46;;;;;;;;;;;24.90;96.10;;;;;;5096125;28;19976;-81
2022/06/16 00:19:13;;;;;;;;;;;24.90;96.20;;;;;;5111773;28;20432;-81
2022/06/16 00:21:41;;;;;;;;;;;24.90;96.30;;;;;;5092446;28;19970;-80
2022/06/16 00:24:08;;;;;;;;;;;24.90;96.40;;;;;;5093908;28;19923;-80
2022/06/16 00:26:36;;;;;;;;;;;24.80;96.40;;;;;;5076225;28;19924;-80
2022/06/16 00:29:04;;;;;;;;;;;24.80;96.50;;;;;;5068721;28;19919;-80
2022/06/16 00:31:36;;;;;;;;;;;24.80;96.60;;;;;;5094047;28;20053;-80
2022/06/16 00:34:03;;;;;;;;;;;24.80;96.70;;;;;;5107024;28;19955;-81
2022/06/16 00:36:32;;;;;;;;;;;24.70;96.70;;;;;;5094162;28;19920;-79
2022/06/16 00:38:59;;;;;;;;;;;24.80;96.80;;;;;;5107536;28;19924;-79
2022/06/16 00:41:26;;;;;;;;;;;24.70;96.70;;;;;;5092563;28;20005;-80
2022/06/16 00:43:58;;;;;;;;;;;24.70;96.70;;;;;;5090388;28;20388;-81
2022/06/16 00:46:28;;;;;;;;;;;24.70;96.60;;;;;;5057924;28;20564;-80
2022/06/16 00:48:58;;;;;;;;;;;24.70;96.60;;;;;;5041302;28;20126;-81
2022/06/16 00:51:32;;;;;;;;;;;24.70;96.60;;;;;;5091482;28;20370;-80
2022/06/16 00:54:18;;;;;;;;;;;24.70;96.60;;;;;;5079824;28;19923;-80
2022/06/16 00:56:46;;;;;;;;;;;24.70;96.60;;;;;;5092137;28;20336;-80
2022/06/16 00:59:15;;;;;;;;;;;24.70;96.60;;;;;;5107599;28;19923;-80
2022/06/16 01:01:43;;;;;;;;;;;24.70;96.50;;;;;;5107402;28;19930;-79
2022/06/16 01:07:03;;;;;;;;;;;24.60;96.50;;;;;;5105516;28;19924;-79
2022/06/16 01:09:35;;;;;;;;;;;24.60;96.50;;;;;;5110412;28;19930;-80
2022/06/16 01:15:07;;;;;;;;;;;24.60;96.50;;;;;;5074299;28;19953;-80
2022/06/16 01:17:41;;;;;;;;;;;24.60;96.50;;;;;;5093049;28;20018;-79
2022/06/16 01:20:12;;;;;;;;;;;24.60;96.50;;;;;;5091810;28;19920;-79
2022/06/16 01:22:58;;;;;;;;;;;24.60;96.50;;;;;;5074450;28;19919;-79
2022/06/16 01:25:41;;;;;;;;;;;24.60;96.50;;;;;;5074854;28;19928;-80
2022/06/16 01:28:34;;;;;;;;;;;24.60;96.50;;;;;;5090667;28;19960;-81
2022/06/16 01:31:06;;;;;;;;;;;24.60;96.70;;;;;;5068831;28;19998;-80
2022/06/16 01:33:40;;;;;;;;;;;24.60;96.80;;;;;;5074793;28;20366;-79
2022/06/16 01:36:13;;;;;;;;;;;24.50;96.90;;;;;;5091681;28;19931;-82
2022/06/16 01:38:50;;;;;;;;;;;24.50;97.00;;;;;;5058197;28;19966;-81
2022/06/16 01:41:22;;;;;;;;;;;24.50;97.10;;;;;;5108365;28;20385;-79
2022/06/16 01:43:49;;;;;;;;;;;24.50;97.10;;;;;;5096548;28;19924;-78
2022/06/16 01:46:26;;;;;;;;;;;24.50;97.10;;;;;;5077645;28;20010;-79
2022/06/16 01:49:32;;;;;;;;;;;24.50;97.10;;;;;;5088203;28;19966;-79
2022/06/16 01:52:08;;;;;;;;;;;24.40;97.10;;;;;;5073991;28;19924;-79
2022/06/16 01:54:38;;;;;;;;;;;24.40;97.10;;;;;;5074187;28;19930;-79
2022/06/16 01:57:20;;;;;;;;;;;24.40;97.20;;;;;;5074502;28;19981;-79
2022/06/16 01:59:51;;;;;;;;;;;24.40;97.20;;;;;;5091033;28;19931;-79
2022/06/16 02:02:19;;;;;;;;;;;24.40;97.10;;;;;;5041033;28;19920;-79
2022/06/16 02:04:49;;;;;;;;;;;24.40;97.10;;;;;;5073898;28;19928;-79
2022/06/16 02:07:22;;;;;;;;;;;24.40;97.20;;;;;;5090695;28;19977;-79
2022/06/16 02:09:51;;;;;;;;;;;24.30;97.10;;;;;;5107636;28;19923;-79
2022/06/16 02:15:20;;;;;;;;;;;24.30;97.20;;;;;;5074206;28;19942;-79
2022/06/16 02:18:01;;;;;;;;;;;24.30;97.30;;;;;;5073915;28;19920;-79
2022/06/16 02:20:36;;;;;;;;;;;24.20;97.20;;;;;;5072900;28;19991;-79
2022/06/16 02:23:04;;;;;;;;;;;24.30;97.30;;;;;;5057425;28;19985;-79
2022/06/16 02:25:31;;;;;;;;;;;24.30;97.30;;;;;;5057429;28;19920;-79
2022/06/16 02:27:58;;;;;;;;;;;24.30;97.30;;;;;;5057214;28;20267;-79
2022/06/16 02:30:30;;;;;;;;;;;24.20;97.30;;;;;;5072430;28;20031;-79
2022/06/16 02:33:07;;;;;;;;;;;24.30;97.40;;;;;;5054899;28;20258;-79
2022/06/16 02:35:53;;;;;;;;;;;24.20;97.50;;;;;;5040004;28;19924;-81
2022/06/16 02:38:33;;;;;;;;;;;24.20;97.50;;;;;;5040035;28;20301;-79
2022/06/16 02:41:01;;;;;;;;;;;24.20;97.60;;;;;;5053038;28;19924;-79
2022/06/16 02:43:38;;;;;;;;;;;24.10;97.70;;;;;;5073475;28;19920;-78
2022/06/16 02:46:07;;;;;;;;;;;24.10;97.80;;;;;;5056488;28;19920;-78
2022/06/16 02:48:39;;;;;;;;;;;24.10;97.80;;;;;;5072694;28;19920;-78
2022/06/16 02:51:11;;;;;;;;;;;24.10;98.00;;;;;;5072926;28;19924;-79
2022/06/16 02:53:55;;;;;;;;;;;24.10;98.10;;;;;;5073105;28;20016;-79
2022/06/16 02:56:26;;;;;;;;;;;24.10;98.10;;;;;;5073240;28;20027;-79
2022/06/16 02:58:54;;;;;;;;;;;24.10;98.10;;;;;;5090367;28;19990;-78
2022/06/16 03:01:26;;;;;;;;;;;24.10;98.10;;;;;;5078344;28;20614;-79
2022/06/16 03:04:01;;;;;;;;;;;24.00;98.10;;;;;;5072757;28;19969;-78
2022/06/16 03:06:29;;;;;;;;;;;24.00;98.10;;;;;;5056006;28;20022;-79
2022/06/16 03:08:57;;;;;;;;;;;23.90;98.20;;;;;;5072866;28;19985;-78
2022/06/16 03:11:29;;;;;;;;;;;23.90;98.30;;;;;;5063502;28;19959;-78
2022/06/16 03:13:58;;;;;;;;;;;23.90;98.40;;;;;;5055721;28;20505;-78
2022/06/16 03:16:32;;;;;;;;;;;23.90;98.50;;;;;;5072801;28;19928;-78
2022/06/16 03:18:59;;;;;;;;;;;23.70;98.60;;;;;;5072468;28;19920;-79
2022/06/16 03:21:29;;;;;;;;;;;23.80;98.70;;;;;;5073138;28;19974;-78
2022/06/16 03:23:57;;;;;;;;;;;23.80;98.90;;;;;;5072957;28;19924;-79
2022/06/16 03:26:26;;;;;;;;;;;23.70;98.90;;;;;;5073045;28;19931;-80
2022/06/16 03:28:57;;;;;;;;;;;23.70;99.00;;;;;;5055890;28;20716;-80
2022/06/16 03:31:24;;;;;;;;;;;23.70;99.10;;;;;;5073609;28;20388;-79
2022/06/16 03:33:55;;;;;;;;;;;23.70;99.20;;;;;;5078813;28;19928;-79
2022/06/16 03:36:26;;;;;;;;;;;23.70;99.20;;;;;;5079773;28;19974;-79
2022/06/16 03:38:55;;;;;;;;;;;23.70;99.20;;;;;;5062675;28;19966;-79
2022/06/16 03:41:22;;;;;;;;;;;23.80;99.20;;;;;;5063862;28;19923;-79
2022/06/16 03:43:56;;;;;;;;;;;23.70;99.30;;;;;;5065567;28;20039;-79
2022/06/16 03:46:24;;;;;;;;;;;23.80;99.30;;;;;;5061540;28;20520;-79
2022/06/16 03:49:03;;;;;;;;;;;23.80;99.40;;;;;;5079493;28;20011;-79
2022/06/16 03:51:45;;;;;;;;;;;23.90;99.30;;;;;;5111131;28;19932;-79
2022/06/16 03:54:19;;;;;;;;;;;23.90;99.40;;;;;;5113354;28;19927;-79
2022/06/16 03:56:47;;;;;;;;;;;23.90;99.40;;;;;;5113100;28;20034;-79
2022/06/16 03:59:21;;;;;;;;;;;23.90;99.50;;;;;;5113185;28;19928;-80
2022/06/16 04:01:53;;;;;;;;;;;24.00;99.50;;;;;;5062626;28;19923;-79
2022/06/16 04:04:28;;;;;;;;;;;24.00;99.40;;;;;;5095241;28;19928;-79
2022/06/16 04:06:58;;;;;;;;;;;24.10;99.50;;;;;;5096019;28;20022;-79
2022/06/16 04:09:27;;;;;;;;;;;24.10;99.40;;;;;;5095812;28;20756;-79
2022/06/16 04:11:58;;;;;;;;;;;24.20;99.50;;;;;;5096474;28;19931;-79
2022/06/16 04:14:26;;;;;;;;;;;24.20;99.50;;;;;;5112445;28;20001;-79
2022/06/16 04:16:58;;;;;;;;;;;24.30;99.60;;;;;;5094946;28;19971;-78
2022/06/16 04:20:11;;;;;;;;;;;24.40;99.40;;;;;;5077229;28;19920;-78
2022/06/16 04:22:25;;;;;;;;;;;24.60;99.20;;;;;;5095882;28;19924;-78
2022/06/16 04:25:12;;;;;;;;;;;24.70;99.00;;;;;;5062103;28;20392;-78
2022/06/16 04:27:41;;;;;;;;;;;24.90;98.70;;;;;;5078317;28;19931;-78
2022/06/16 04:30:12;;;;;;;;;;;25.00;98.30;;;;;;5095087;28;20294;-78
2022/06/16 04:32:39;;;;;;;;;;;25.20;98.10;;;;;;5096751;28;20392;-78
2022/06/16 04:35:09;;;;;;;;;;;25.30;97.80;;;;;;5082320;28;20681;-79
2022/06/16 04:37:48;;;;;;;;;;;25.50;97.40;;;;;;5099480;28;19924;-79
2022/06/16 04:40:16;;;;;;;;;;;25.60;97.10;;;;;;5082149;28;20375;-79
2022/06/16 04:42:44;;;;;;;;;;;25.70;96.80;;;;;;5097067;28;19923;-79
2022/06/16 04:45:11;;;;;;;;;;;25.90;96.50;;;;;;5079211;28;19981;-79
2022/06/16 04:47:40;;;;;;;;;;;26.00;96.20;;;;;;5062759;28;20014;-79
2022/06/16 04:50:10;;;;;;;;;;;26.20;95.80;;;;;;5095971;28;19953;-79
2022/06/16 04:52:38;;;;;;;;;;;26.30;95.50;;;;;;5095807;28;19978;-79
2022/06/16 04:55:06;;;;;;;;;;;26.40;95.40;;;;;;5129641;27;19923;-79
2022/06/16 04:57:34;;;;;;;;;;;26.50;94.90;;;;;;5113519;28;20021;-79
2022/06/16 05:00:37;;;;;;;;;;;26.70;94.70;;;;;;5077211;28;19954;-79
2022/06/16 05:03:17;;;;;;;;;;;26.80;94.00;;;;;;5097297;28;20004;-79
2022/06/16 05:06:13;;;;;;;;;;;26.90;93.70;;;;;;5095259;28;19920;-79
2022/06/16 05:08:55;;;;;;;;;;;27.10;93.50;;;;;;5112340;28;19927;-79
2022/06/16 05:11:49;;;;;;;;;;;27.20;93.00;;;;;;5096591;28;20360;-80
2022/06/16 05:14:45;;;;;;;;;;;27.40;92.50;;;;;;5099787;28;19938;-79
2022/06/16 05:17:25;;;;;;;;;;;27.50;91.90;;;;;;5078757;28;19920;-80
2022/06/16 05:20:11;;;;;;;;;;;27.60;91.30;;;;;;5098014;28;19946;-80
2022/06/16 05:23:13;;;;;;;;;;;27.70;90.10;;;;;;5083630;28;19920;-80
2022/06/16 05:26:01;;;;;;;;;;;27.90;88.30;;;;;;5112045;28;19919;-80
2022/06/16 05:28:48;;;;;;;;;;;28.10;88.10;;;;;;5090962;28;20017;-79
2022/06/16 05:31:36;;;;;;;;;;;28.30;87.60;;;;;;5077537;28;19924;-79
2022/06/16 05:34:27;;;;;;;;;;;28.40;86.10;;;;;;5074565;28;19924;-80
2022/06/16 05:37:13;;;;;;;;;;;28.50;85.70;;;;;;5074805;28;19924;-80
2022/06/16 05:40:07;;;;;;;;;;;28.70;84.90;;;;;;5098818;28;20010;-79
2022/06/16 05:42:59;;;;;;;;;;;28.70;84.00;;;;;;5112254;28;19927;-80
2022/06/16 05:46:16;;;;;;;;;;;28.80;83.30;;;;;;5096249;28;19936;-79
2022/06/16 05:48:53;;;;;;;;;;;28.90;82.90;;;;;;5076516;28;20377;-79
2022/06/16 05:51:22;;;;;;;;;;;29.00;83.20;;;;;;5060604;28;19920;-80
2022/06/16 05:54:11;;;;;;;;;;;29.00;83.10;;;;;;5111401;28;19969;-79
2022/06/16 05:56:40;;;;;;;;;;;29.10;81.50;;;;;;5094231;28;19930;-80
2022/06/16 05:59:08;;;;;;;;;;;29.20;79.50;;;;;;5077563;28;19960;-80
2022/06/16 06:01:37;;;;;;;;;;;29.30;78.10;;;;;;5077519;28;19920;-80
2022/06/16 06:04:08;;;;;;;;;;;29.40;76.80;;;;;;5111937;28;19920;-80
2022/06/16 06:06:38;;;;;;;;;;;29.50;75.60;;;;;;5077747;28;19923;-80
2022/06/16 06:17:31;;;;;;;;;;;29.90;73.90;;;;;;5094123;28;20361;-80
2022/06/16 06:20:02;;;;;;;;;;;29.90;73.50;;;;;;5094129;28;19923;-80
2022/06/16 06:22:29;;;;;;;;;;;30.00;73.50;;;;;;5078575;28;19923;-80
2022/06/16 06:25:08;;;;;;;;;;;30.00;73.10;;;;;;5093823;28;20013;-80
2022/06/16 06:27:39;;;;;;;;;;;30.20;72.90;;;;;;5073817;28;19924;-80
2022/06/16 06:30:09;;;;;;;;;;;30.30;72.80;;;;;;5073588;28;19920;-80
2022/06/16 06:32:36;;;;;;;;;;;30.50;72.50;;;;;;5107021;28;19963;-80
2022/06/16 06:35:04;;;;;;;;;;;30.60;71.80;;;;;;5073718;28;19934;-81
2022/06/16 06:37:32;;;;;;;;;;;30.70;71.40;;;;;;5073633;28;20438;-80
2022/06/16 06:39:59;;;;;;;;;;;30.70;72.10;;;;;;5091535;28;19928;-81
2022/06/16 06:42:27;;;;;;;;;;;30.80;72.70;;;;;;5073198;28;20269;-81
2022/06/16 06:44:56;;;;;;;;;;;30.80;72.70;;;;;;5087399;28;19924;-81
2022/06/16 06:47:25;;;;;;;;;;;30.90;73.00;;;;;;5090111;28;20278;-81
2022/06/16 06:49:53;;;;;;;;;;;31.00;73.30;;;;;;5073370;28;19924;-80
2022/06/16 06:52:20;;;;;;;;;;;31.00;73.90;;;;;;5073521;28;19923;-82
2022/06/16 06:54:48;;;;;;;;;;;31.10;74.30;;;;;;5106786;28;19924;-81
2022/06/16 06:57:18;;;;;;;;;;;31.20;73.40;;;;;;5090712;28;19924;-82
2022/06/16 06:59:45;;;;;;;;;;;31.20;73.40;;;;;;5073263;28;19919;-81
2022/06/16 07:02:13;;;;;;;;;;;31.30;74.10;;;;;;5090338;28;19998;-81
2022/06/16 07:04:41;;;;;;;;;;;31.40;74.40;;;;;;5073183;28;20393;-81
2022/06/16 07:07:10;;;;;;;;;;;31.50;74.70;;;;;;5072312;28;19924;-81
2022/06/16 07:09:37;;;;;;;;;;;31.60;75.50;;;;;;5073381;28;20330;-82
2022/06/16 07:12:13;;;;;;;;;;;31.70;75.40;;;;;;5107189;28;19969;-81
2022/06/16 07:14:42;;;;;;;;;;;31.70;76.00;;;;;;5072522;28;19925;-81
2022/06/16 07:17:09;;;;;;;;;;;31.70;76.00;;;;;;5056606;28;20011;-82
2022/06/16 07:19:37;;;;;;;;;;;31.90;76.00;;;;;;5056264;28;19924;-82
2022/06/16 07:22:05;;;;;;;;;;;31.90;75.20;;;;;;5077420;28;19920;-82
2022/06/16 07:24:33;;;;;;;;;;;31.90;75.50;;;;;;5077221;28;19927;-82
2022/06/16 07:27:01;;;;;;;;;;;31.90;74.90;;;;;;5092785;28;19919;-82
2022/06/16 07:29:28;;;;;;;;;;;31.90;74.90;;;;;;5076222;28;19982;-82
2022/06/16 07:31:58;;;;;;;;;;;32.00;75.50;;;;;;5093274;28;19923;-81
2022/06/16 07:34:26;;;;;;;;;;;32.00;75.30;;;;;;5092574;28;19930;-81
2022/06/16 07:36:54;;;;;;;;;;;32.10;75.20;;;;;;5092559;28;19930;-82
2022/06/16 07:39:22;;;;;;;;;;;32.10;75.50;;;;;;5111232;28;19947;-83
2022/06/16 07:41:50;;;;;;;;;;;32.00;75.40;;;;;;5092910;28;19999;-82
2022/06/16 07:44:17;;;;;;;;;;;31.90;75.50;;;;;;5092248;28;19927;-81
2022/06/16 07:46:47;;;;;;;;;;;31.80;75.70;;;;;;5075987;28;19962;-82
2022/06/16 07:49:16;;;;;;;;;;;31.80;75.80;;;;;;5093066;28;20072;-82
2022/06/16 07:51:43;;;;;;;;;;;31.90;75.20;;;;;;5076672;28;20269;-82
2022/06/16 07:54:12;;;;;;;;;;;31.90;75.50;;;;;;5064649;28;19934;-82
2022/06/16 07:56:49;;;;;;;;;;;32.00;75.50;;;;;;5055849;28;19928;-81
2022/06/16 07:59:16;;;;;;;;;;;32.10;74.60;;;;;;5073049;28;19923;-82
2022/06/16 08:01:44;;;;;;;;;;;32.20;73.90;;;;;;5072780;28;19927;-82
2022/06/16 08:04:12;;;;;;;;;;;32.30;73.40;;;;;;5089465;28;19932;-83
2022/06/16 08:06:40;;;;;;;;;;;32.20;72.20;;;;;;5072772;28;19994;-81
2022/06/16 08:09:08;;;;;;;;;;;32.20;72.00;;;;;;5089238;28;20015;-82
2022/06/16 08:14:22;;;;;;;;;;;32.30;71.20;;;;;;5085220;28;19935;-82
2022/06/16 08:16:51;;;;;;;;;;;32.30;70.10;;;;;;5051738;28;19928;-82
2022/06/16 08:19:19;;;;;;;;;;;32.30;69.50;;;;;;5054599;28;20282;-82
2022/06/16 08:21:47;;;;;;;;;;;32.30;69.80;;;;;;5073531;28;20378;-82
2022/06/16 08:24:14;;;;;;;;;;;32.30;68.60;;;;;;5056139;28;19930;-82
2022/06/16 08:26:42;;;;;;;;;;;32.30;68.60;;;;;;5039949;28;19938;-82
2022/06/16 08:29:11;;;;;;;;;;;32.20;67.70;;;;;;5073725;28;20302;-82
2022/06/16 08:31:39;;;;;;;;;;;32.20;67.30;;;;;;5039614;28;19925;-81
2022/06/16 08:34:06;;;;;;;;;;;32.30;66.90;;;;;;5089373;28;19920;-82
2022/06/16 08:36:36;;;;;;;;;;;32.20;67.10;;;;;;5074081;28;19924;-81
2022/06/16 08:39:04;;;;;;;;;;;32.20;66.10;;;;;;5039413;28;19931;-82
2022/06/16 08:41:40;;;;;;;;;;;32.10;65.80;;;;;;5073807;28;19931;-81
2022/06/16 08:44:10;;;;;;;;;;;32.10;65.90;;;;;;5056384;28;19924;-81
2022/06/16 08:46:58;;;;;;;;;;;31.90;64.60;;;;;;5055931;28;20419;-81
2022/06/16 08:49:43;;;;;;;;;;;31.90;65.00;;;;;;5042384;28;19943;-82
2022/06/16 08:52:20;;;;;;;;;;;31.90;65.20;;;;;;5038898;28;20015;-81
2022/06/16 08:54:51;;;;;;;;;;;31.90;65.50;;;;;;5055738;28;19924;-74
2022/06/16 08:57:32;;;;;;;;;;;31.90;65.70;;;;;;5072064;28;19949;-73
2022/06/16 09:00:03;;;;;;;;;;;32.10;66.30;;;;;;5038686;28;20018;-73
2022/06/16 09:02:31;;;;;;;;;;;32.10;65.00;;;;;;5021298;28;19925;-74
2022/06/16 09:04:58;;;;;;;;;;;32.20;65.80;;;;;;5038594;28;19978;-74
2022/06/16 09:07:37;;;;;;;;;;;32.30;65.50;;;;;;5073492;28;19924;-75
2022/06/16 09:10:17;;;;;;;;;;;32.30;64.80;;;;;;5055391;28;19925;-75
2022/06/16 09:12:47;;;;;;;;;;;32.30;64.60;;;;;;5071458;28;19931;-75
2022/06/16 09:15:34;;;;;;;;;;;32.30;64.60;;;;;;5075482;28;19927;-74
2022/06/16 09:18:19;;;;;;;;;;;32.40;65.70;;;;;;5075369;28;19928;-74
2022/06/16 09:21:06;;;;;;;;;;;32.60;65.20;;;;;;5058079;28;19935;-74
2022/06/16 09:23:33;;;;;;;;;;;32.30;64.70;;;;;;5075029;28;19931;-74
2022/06/16 09:26:03;;;;;;;;;;;32.40;64.80;;;;;;5073818;28;19924;-75
2022/06/16 09:28:37;;;;;;;;;;;32.50;65.60;;;;;;5057162;28;20076;-75
2022/06/16 09:31:20;;;;;;;;;;;32.60;66.10;;;;;;5074862;28;20282;-75
2022/06/16 09:33:50;;;;;;;;;;;32.60;65.60;;;;;;5074285;28;19920;-75
2022/06/16 09:36:29;;;;;;;;;;;32.70;64.90;;;;;;5055649;28;20396;-75
2022/06/16 09:39:09;;;;;;;;;;;32.60;65.50;;;;;;5091632;28;19927;-74
2022/06/16 09:44:58;;;;;;;;;;;32.60;66.70;;;;;;5091127;28;19924;-75
2022/06/16 09:47:28;;;;;;;;;;;32.60;65.80;;;;;;5091659;28;19924;-75
2022/06/16 09:50:10;;;;;;;;;;;32.50;65.50;;;;;;5074578;28;20364;-75
2022/06/16 09:52:42;;;;;;;;;;;32.40;65.90;;;;;;5089730;28;19946;-75
2022/06/16 09:55:18;;;;;;;;;;;32.40;66.60;;;;;;5091695;28;19931;-74
2022/06/16 09:57:49;;;;;;;;;;;32.50;66.80;;;;;;5092403;28;19930;-75
2022/06/16 10:00:18;;;;;;;;;;;32.60;66.80;;;;;;5073821;28;19966;-74
2022/06/16 10:02:49;;;;;;;;;;;32.70;66.40;;;;;;5091116;28;20385;-76
2022/06/16 10:05:21;;;;;;;;;;;32.80;66.80;;;;;;5092995;28;19935;-75
2022/06/16 10:07:57;;;;;;;;;;;32.90;66.30;;;;;;5094072;28;19955;-74
2022/06/16 10:10:30;;;;;;;;;;;32.90;66.40;;;;;;5060309;28;20413;-75
2022/06/16 10:12:57;;;;;;;;;;;33.10;66.10;;;;;;5101126;28;19930;-75
2022/06/16 10:15:25;;;;;;;;;;;33.20;65.90;;;;;;5094675;28;19941;-74
2022/06/16 10:17:52;;;;;;;;;;;33.10;65.30;;;;;;5094088;28;19947;-75
2022/06/16 10:20:21;;;;;;;;;;;33.10;66.00;;;;;;5077580;28;19923;-74
2022/06/16 10:22:52;;;;;;;;;;;33.00;66.40;;;;;;5093959;28;20408;-74
2022/06/16 10:25:27;;;;;;;;;;;32.90;66.30;;;;;;5094190;28;19920;-75
2022/06/16 10:28:36;;;;;;;;;;;32.70;66.30;;;;;;5110786;28;19919;-74
2022/06/16 10:31:05;;;;;;;;;;;32.70;67.10;;;;;;5049065;28;19927;-74
2022/06/16 10:33:34;;;;;;;;;;;32.80;67.30;;;;;;5048604;28;19978;-74
2022/06/16 10:36:06;;;;;;;;;;;32.80;67.00;;;;;;5072096;28;20027;-74
2022/06/16 10:38:38;;;;;;;;;;;32.80;67.30;;;;;;5093531;28;20272;-75
2022/06/16 10:41:21;;;;;;;;;;;32.70;66.70;;;;;;5110973;28;19927;-74
2022/06/16 10:43:52;;;;;;;;;;;32.60;66.50;;;;;;5077378;28;20289;-74
2022/06/16 10:46:28;;;;;;;;;;;32.60;67.00;;;;;;5094024;28;19931;-75
2022/06/16 10:48:59;;;;;;;;;;;32.50;67.20;;;;;;5092632;28;20346;-75
2022/06/16 10:51:28;;;;;;;;;;;32.60;67.20;;;;;;5093237;28;19924;-75
2022/06/16 10:53:59;;;;;;;;;;;32.60;67.00;;;;;;5110247;28;19931;-75
2022/06/16 10:56:27;;;;;;;;;;;32.50;67.00;;;;;;5111695;28;19923;-75
2022/06/16 10:58:57;;;;;;;;;;;32.60;67.90;;;;;;5093421;28;19920;-74
2022/06/16 11:01:31;;;;;;;;;;;32.50;67.40;;;;;;5110080;28;19919;-75
2022/06/16 11:04:04;;;;;;;;;;;32.60;67.20;;;;;;5108070;28;19990;-74
2022/06/16 11:06:32;;;;;;;;;;;32.60;66.70;;;;;;5093168;28;19924;-75
2022/06/16 11:09:02;;;;;;;;;;;32.40;66.50;;;;;;5093876;28;19920;-75
2022/06/16 11:11:39;;;;;;;;;;;32.40;66.90;;;;;;5093569;28;19930;-75
2022/06/16 11:14:17;;;;;;;;;;;32.50;67.90;;;;;;5076073;28;20042;-74
2022/06/16 11:16:49;;;;;;;;;;;32.60;68.00;;;;;;5076209;28;19926;-77
2022/06/16 11:19:24;;;;;;;;;;;32.60;67.60;;;;;;5110272;28;19974;-75
2022/06/16 11:21:53;;;;;;;;;;;32.50;67.70;;;;;;5111353;28;19949;-76
2022/06/16 11:24:23;;;;;;;;;;;32.40;67.70;;;;;;5109920;28;19920;-75
2022/06/16 11:26:52;;;;;;;;;;;32.40;68.70;;;;;;5092601;28;19945;-76
2022/06/16 11:29:20;;;;;;;;;;;32.30;68.40;;;;;;5109988;28;19923;-75
2022/06/16 11:31:50;;;;;;;;;;;32.10;68.20;;;;;;5110057;28;19966;-75
2022/06/16 11:34:20;;;;;;;;;;;32.10;67.80;;;;;;5093022;28;19933;-77
2022/06/16 11:37:01;;;;;;;;;;;32.20;68.10;;;;;;5076759;28;19926;-75
2022/06/16 11:39:28;;;;;;;;;;;32.20;68.60;;;;;;5092779;28;19927;-76
2022/06/16 11:41:56;;;;;;;;;;;32.10;67.70;;;;;;5109703;28;20010;-76
2022/06/16 11:44:47;;;;;;;;;;;32.20;67.00;;;;;;5079698;28;19924;-75
2022/06/16 11:47:15;;;;;;;;;;;32.00;66.80;;;;;;5110439;28;20356;-74
2022/06/16 11:49:52;;;;;;;;;;;32.00;66.80;;;;;;5094700;28;19927;-76
2022/06/16 11:52:25;;;;;;;;;;;32.00;66.40;;;;;;5092931;28;19924;-75
2022/06/16 11:54:56;;;;;;;;;;;32.00;66.40;;;;;;5078670;28;19928;-75
2022/06/16 11:57:31;;;;;;;;;;;32.10;67.30;;;;;;5096313;28;20487;-74
2022/06/16 12:00:17;;;;;;;;;;;32.00;66.30;;;;;;5095870;28;19923;-75
2022/06/16 12:02:57;;;;;;;;;;;32.00;65.30;;;;;;5113906;28;19924;-76
2022/06/16 12:05:28;;;;;;;;;;;31.80;65.50;;;;;;5112872;28;19924;-76
2022/06/16 12:08:14;;;;;;;;;;;31.80;65.50;;;;;;5096260;28;19954;-74
2022/06/16 12:10:47;;;;;;;;;;;31.80;66.60;;;;;;5078734;28;19919;-74
2022/06/16 12:13:21;;;;;;;;;;;31.80;65.70;;;;;;5112862;27;19924;-75
2022/06/16 12:15:53;;;;;;;;;;;31.80;66.20;;;;;;5112610;28;20226;-76
2022/06/16 12:18:35;;;;;;;;;;;31.90;66.20;;;;;;5096370;28;19977;-73
2022/06/16 12:21:06;;;;;;;;;;;31.90;65.50;;;;;;5078703;28;19931;-74
2022/06/16 12:23:55;;;;;;;;;;;31.80;64.60;;;;;;5078488;28;19970;-78
2022/06/16 12:26:29;;;;;;;;;;;31.70;65.60;;;;;;5095878;28;20017;-75
2022/06/16 12:29:15;;;;;;;;;;;31.70;65.10;;;;;;5088409;28;20290;-76
2022/06/16 12:31:48;;;;;;;;;;;31.80;65.10;;;;;;5078339;28;19923;-76
2022/06/16 12:34:26;;;;;;;;;;;31.80;64.80;;;;;;5078785;28;20026;-75
2022/06/16 12:36:54;;;;;;;;;;;31.80;64.50;;;;;;5095577;28;20018;-75
2022/06/16 12:39:49;;;;;;;;;;;31.90;64.20;;;;;;5110034;28;20293;-75
2022/06/16 12:42:18;;;;;;;;;;;31.90;64.10;;;;;;5081850;28;19965;-76
2022/06/16 12:44:46;;;;;;;;;;;31.80;63.30;;;;;;5078432;28;20018;-74
2022/06/16 12:47:19;;;;;;;;;;;31.90;63.10;;;;;;5112433;28;19927;-74
2022/06/16 12:50:07;;;;;;;;;;;32.00;63.30;;;;;;5095353;28;19971;-75
2022/06/16 12:52:51;;;;;;;;;;;31.90;63.00;;;;;;5078170;28;19926;-74
2022/06/16 12:55:24;;;;;;;;;;;31.90;63.00;;;;;;5060982;28;19930;-74
2022/06/16 12:57:54;;;;;;;;;;;31.90;62.60;;;;;;5094771;28;20401;-75
2022/06/16 13:00:24;;;;;;;;;;;31.90;62.50;;;;;;5112815;28;19920;-74
2022/06/16 13:03:00;;;;;;;;;;;31.90;61.80;;;;;;5078650;28;19959;-75
2022/06/16 13:05:28;;;;;;;;;;;31.90;61.90;;;;;;5111531;28;20396;-76
2022/06/16 13:07:57;;;;;;;;;;;31.80;61.90;;;;;;5095538;28;19924;-75
2022/06/16 13:10:25;;;;;;;;;;;31.80;61.90;;;;;;5078646;28;19995;-74
2022/06/16 13:12:55;;;;;;;;;;;31.80;62.10;;;;;;5096423;28;19924;-74
2022/06/16 13:15:31;;;;;;;;;;;31.70;61.70;;;;;;5112155;28;19969;-74
2022/06/16 13:18:07;;;;;;;;;;;31.80;63.30;;;;;;5073403;28;20354;-74
2022/06/16 13:20:35;;;;;;;;;;;31.80;62.70;;;;;;5095584;28;19920;-77
2022/06/16 13:23:09;;;;;;;;;;;31.70;62.90;;;;;;5105708;28;19977;-73
2022/06/16 13:25:43;;;;;;;;;;;31.60;63.90;;;;;;5095881;28;20022;-74
2022/06/16 13:28:12;;;;;;;;;;;31.70;63.90;;;;;;5087968;28;19966;-75
2022/06/16 13:30:40;;;;;;;;;;;31.70;64.70;;;;;;5092519;28;20391;-75
2022/06/16 13:33:08;;;;;;;;;;;31.60;64.50;;;;;;5088198;28;20364;-74
2022/06/16 13:35:38;;;;;;;;;;;31.50;65.00;;;;;;5075270;27;19924;-75
2022/06/16 13:38:06;;;;;;;;;;;31.50;65.10;;;;;;5099065;27;20388;-75
2022/06/16 13:40:34;;;;;;;;;;;31.50;65.10;;;;;;5096624;28;19927;-75
2022/06/16 13:43:12;;;;;;;;;;;31.50;65.30;;;;;;5068189;28;19931;-75
2022/06/16 13:45:52;;;;;;;;;;;31.40;65.10;;;;;;5074596;28;19920;-74
2022/06/16 13:48:37;;;;;;;;;;;31.50;65.00;;;;;;5074247;28;19930;-75
2022/06/16 13:51:25;;;;;;;;;;;31.40;66.90;;;;;;5092712;28;19928;-75
2022/06/16 13:53:57;;;;;;;;;;;31.40;67.10;;;;;;5074036;28;19927;-75
2022/06/16 13:56:33;;;;;;;;;;;31.50;65.80;;;;;;5056726;28;19924;-75
2022/06/16 13:59:28;;;;;;;;;;;31.40;66.60;;;;;;5073907;28;19924;-74
2022/06/16 14:02:02;;;;;;;;;;;31.40;67.50;;;;;;5056466;28;20014;-75
2022/06/16 14:04:30;;;;;;;;;;;31.30;65.80;;;;;;5057389;28;19924;-75
2022/06/16 14:07:01;;;;;;;;;;;31.30;65.70;;;;;;5090724;28;19931;-76
2022/06/16 14:09:37;;;;;;;;;;;31.10;66.60;;;;;;5057106;28;20014;-75
2022/06/16 14:12:14;;;;;;;;;;;31.20;67.90;;;;;;5092212;28;20377;-75
2022/06/16 14:14:48;;;;;;;;;;;31.10;65.80;;;;;;5056440;28;20024;-74
2022/06/16 14:17:34;;;;;;;;;;;31.00;66.20;;;;;;5073875;28;20369;-74
2022/06/16 14:20:24;;;;;;;;;;;30.90;64.30;;;;;;5073451;28;19924;-76
2022/06/16 14:22:54;;;;;;;;;;;30.90;64.80;;;;;;5090361;28;19969;-73
2022/06/16 14:25:25;;;;;;;;;;;30.80;64.70;;;;;;5090663;28;19974;-73
2022/06/16 14:27:55;;;;;;;;;;;30.70;64.70;;;;;;5073831;28;19924;-73
2022/06/16 14:30:25;;;;;;;;;;;30.70;65.20;;;;;;5092022;28;19920;-74
2022/06/16 14:32:55;;;;;;;;;;;30.70;64.30;;;;;;5090186;28;19923;-75
2022/06/16 14:35:38;;;;;;;;;;;30.70;65.10;;;;;;5072411;28;19924;-75
2022/06/16 14:38:08;;;;;;;;;;;30.70;64.30;;;;;;5092240;28;19924;-75
2022/06/16 14:40:45;;;;;;;;;;;30.60;65.90;;;;;;5089142;28;19923;-78
2022/06/16 14:43:18;;;;;;;;;;;30.60;66.80;;;;;;5073671;28;19924;-76
2022/06/16 14:45:50;;;;;;;;;;;30.70;66.90;;;;;;5072848;28;19927;-75
2022/06/16 14:48:23;;;;;;;;;;;30.70;67.60;;;;;;5090487;28;19920;-75
2022/06/16 14:50:53;;;;;;;;;;;30.90;67.70;;;;;;5073543;28;19919;-75
2022/06/16 14:53:26;;;;;;;;;;;30.90;67.20;;;;;;5090237;28;20666;-75
2022/06/16 14:56:02;;;;;;;;;;;30.90;67.10;;;;;;5091415;28;19927;-75
2022/06/16 14:58:43;;;;;;;;;;;30.90;67.00;;;;;;5073263;28;19920;-74
2022/06/16 15:01:11;;;;;;;;;;;30.70;67.60;;;;;;5090541;28;19973;-74
2022/06/16 15:03:42;;;;;;;;;;;30.70;67.00;;;;;;5091314;28;19950;-74
2022/06/16 15:06:10;;;;;;;;;;;30.70;65.60;;;;;;5090159;28;19928;-74
2022/06/16 15:08:41;;;;;;;;;;;30.70;65.40;;;;;;5089635;28;19930;-76
2022/06/16 15:11:11;;;;;;;;;;;30.60;65.90;;;;;;5072772;28;19991;-75
2022/06/16 15:13:40;;;;;;;;;;;30.70;66.00;;;;;;5106856;28;20020;-75
2022/06/16 15:18:57;;;;;;;;;;;30.60;65.60;;;;;;5089948;28;19919;-75